createdAt,value
2018-12-12T00:01:22.911Z,1.45
2018-12-12T00:03:51.959Z,1.40
2018-12-12T00:06:20.258Z,2.05
2018-12-12T00:08:48.355Z,6.87
2018-12-12T00:11:16.539Z,1.22
2018-12-12T00:13:44.682Z,3.52
2018-12-12T00:16:12.922Z,1.62
2018-12-12T00:18:41.235Z,1.62
2018-12-12T00:21:09.401Z,1.98
2018-12-12T00:23:39.551Z,1.70
2018-12-12T00:26:07.905Z,1.50
2018-12-12T00:28:36.178Z,3.85
2018-12-12T00:31:04.449Z,1.40
2018-12-12T00:33:32.690Z,2.37
2018-12-12T00:36:00.840Z,3.95
2018-12-12T00:38:29.256Z,1.80
2018-12-12T00:40:58.689Z,5.53
2018-12-12T00:43:26.900Z,3.50
2018-12-12T00:45:55.164Z,1.77
2018-12-12T00:48:23.580Z,1.62
2018-12-12T00:50:51.775Z,1.17
2018-12-12T00:53:20.002Z,1.90
2018-12-12T00:55:48.320Z,4.42
2018-12-12T00:58:18.264Z,1.75
2018-12-12T01:00:46.532Z,4.28
2018-12-12T01:03:14.738Z,4.60
2018-12-12T01:05:42.973Z,2.05
2018-12-12T01:08:11.229Z,5.53
2018-12-12T01:10:39.434Z,4.97
2018-12-12T01:13:07.616Z,2.02
2018-12-12T01:15:35.848Z,2.35
2018-12-12T01:18:04.032Z,3.50
2018-12-12T01:20:32.365Z,1.70
2018-12-12T01:23:00.538Z,2.87
2018-12-12T01:25:28.950Z,2.42
2018-12-12T01:27:57.327Z,4.28
2018-12-12T01:30:25.504Z,3.90
2018-12-12T01:32:53.712Z,1.75
2018-12-12T01:35:21.952Z,11.73
2018-12-12T01:37:50.995Z,2.10
2018-12-12T01:40:19.810Z,2.15
2018-12-12T01:42:48.053Z,2.65
2018-12-12T01:45:16.288Z,2.77
2018-12-12T01:47:44.463Z,1.60
2018-12-12T01:50:14.272Z,3.62
2018-12-12T01:52:43.095Z,2.27
2018-12-12T01:55:11.350Z,2.00
2018-12-12T01:57:39.502Z,1.25
2018-12-12T02:00:07.708Z,1.77
2018-12-12T02:02:35.923Z,3.92
2018-12-12T02:05:04.500Z,1.85
2018-12-12T02:07:34.853Z,1.40
2018-12-12T02:10:03.124Z,2.60
2018-12-12T02:12:31.441Z,2.10
2018-12-12T02:14:59.704Z,2.77
2018-12-12T02:17:29.945Z,3.85
2018-12-12T02:19:58.077Z,5.45
2018-12-12T02:22:26.483Z,2.60
2018-12-12T02:24:55.071Z,1.82
2018-12-12T02:27:23.891Z,4.70
2018-12-12T02:29:52.051Z,3.77
2018-12-12T02:32:20.240Z,2.65
2018-12-12T02:34:48.441Z,2.22
2018-12-12T02:37:16.618Z,4.12
2018-12-12T02:39:44.732Z,2.70
2018-12-12T02:42:12.943Z,2.92
2018-12-12T02:44:41.195Z,1.87
2018-12-12T02:47:09.311Z,5.03
2018-12-12T02:49:37.650Z,2.62
2018-12-12T02:52:05.965Z,5.22
2018-12-12T02:54:34.145Z,1.70
2018-12-12T02:57:02.375Z,1.50
2018-12-12T02:59:30.541Z,3.05
2018-12-12T03:01:58.743Z,2.05
2018-12-12T03:04:26.905Z,3.45
2018-12-12T03:06:55.061Z,3.37
2018-12-12T03:09:23.293Z,2.72
2018-12-12T03:11:51.410Z,3.08
2018-12-12T03:14:19.656Z,2.42
2018-12-12T03:16:47.793Z,4.80
2018-12-12T03:19:16.437Z,2.40
2018-12-12T03:21:44.700Z,1.87
2018-12-12T03:24:13.029Z,2.10
2018-12-12T03:26:41.172Z,6.80
2018-12-12T03:29:09.350Z,2.42
2018-12-12T03:31:37.490Z,3.47
2018-12-12T03:34:05.827Z,3.87
2018-12-12T03:36:33.988Z,3.37
2018-12-12T03:39:02.171Z,4.30
2018-12-12T03:41:30.427Z,2.97
2018-12-12T03:43:58.722Z,3.90
2018-12-12T03:46:26.920Z,4.62
2018-12-12T03:48:55.232Z,3.07
2018-12-12T03:51:24.221Z,2.20
2018-12-12T03:53:52.428Z,2.67
2018-12-12T03:56:20.673Z,4.17
2018-12-12T03:58:49.768Z,4.10
2018-12-12T04:01:18.232Z,3.02
2018-12-12T04:03:46.432Z,5.00
2018-12-12T04:06:15.434Z,5.12
2018-12-12T04:08:43.656Z,3.75
2018-12-12T04:11:11.793Z,4.22
2018-12-12T04:13:41.184Z,3.50
2018-12-12T04:16:10.008Z,4.45
2018-12-12T04:18:38.333Z,2.85
2018-12-12T04:21:06.610Z,4.85
2018-12-12T04:23:34.861Z,10.63
2018-12-12T04:26:03.078Z,3.90
2018-12-12T04:28:31.645Z,4.90
2018-12-12T04:30:59.859Z,6.45
2018-12-12T04:33:27.976Z,9.30
2018-12-12T04:35:56.231Z,5.58
2018-12-12T04:38:24.511Z,5.65
2018-12-12T04:40:52.621Z,4.70
2018-12-12T04:43:20.889Z,4.83
2018-12-12T04:45:49.114Z,9.80
2018-12-12T04:48:17.347Z,7.92
2018-12-12T04:50:45.828Z,7.15
2018-12-12T04:53:14.065Z,9.60
2018-12-12T04:55:42.277Z,6.70
2018-12-12T04:58:10.489Z,10.88
2018-12-12T05:00:38.727Z,11.45
2018-12-12T05:03:07.245Z,12.28
2018-12-12T05:05:35.481Z,9.15
2018-12-12T05:08:03.747Z,10.58
2018-12-12T05:10:31.932Z,8.30
2018-12-12T05:13:00.182Z,15.32
2018-12-12T05:15:28.325Z,11.57
2018-12-12T05:17:56.641Z,10.98
2018-12-12T05:20:24.926Z,18.30
2018-12-12T05:22:54.037Z,10.28
2018-12-12T05:25:22.352Z,19.73
2018-12-12T05:27:50.575Z,15.03
2018-12-12T05:30:18.894Z,13.80
2018-12-12T05:32:47.563Z,14.18
2018-12-12T05:35:15.874Z,15.60
2018-12-12T05:37:50.652Z,15.32
2018-12-12T05:40:14.517Z,12.60
2018-12-12T05:42:42.850Z,15.63
2018-12-12T05:45:11.082Z,15.10
2018-12-12T05:47:39.486Z,14.28
2018-12-12T05:50:07.842Z,17.20
2018-12-12T05:52:36.152Z,15.28
2018-12-12T05:55:05.414Z,18.73
2018-12-12T05:57:33.588Z,18.60
2018-12-12T06:00:01.882Z,15.05
2018-12-12T06:02:30.046Z,16.17
2018-12-12T06:04:58.326Z,14.98
2018-12-12T06:07:26.516Z,18.90
2018-12-12T06:09:54.844Z,17.20
2018-12-12T06:12:22.984Z,17.42
2018-12-12T06:14:51.176Z,17.30
2018-12-12T06:17:19.502Z,13.22
2018-12-12T06:19:47.845Z,16.23
2018-12-12T06:22:16.357Z,18.90
2018-12-12T06:24:45.117Z,17.60
2018-12-12T06:27:13.260Z,15.58
2018-12-12T06:29:42.791Z,15.03
2018-12-12T06:32:11.029Z,19.70
2018-12-12T06:34:41.106Z,17.45
2018-12-12T06:37:09.737Z,17.37
2018-12-12T06:39:37.927Z,21.07
2018-12-12T06:42:06.182Z,23.50
2018-12-12T06:44:34.417Z,21.23
2018-12-12T06:47:02.600Z,12.90
2018-12-12T06:49:30.875Z,18.00
2018-12-12T06:51:59.201Z,21.68
2018-12-12T06:54:27.399Z,19.27
2018-12-12T06:56:56.891Z,24.18
2018-12-12T06:59:25.150Z,13.35
2018-12-12T07:01:53.485Z,13.53
2018-12-12T07:04:21.749Z,13.95
2018-12-12T07:06:50.051Z,16.75
2018-12-12T07:09:18.258Z,12.18
2018-12-12T07:11:46.491Z,13.83
2018-12-12T07:14:14.687Z,15.63
2018-12-12T07:16:42.947Z,9.83
2018-12-12T07:19:11.229Z,16.73
2018-12-12T07:21:39.459Z,11.93
2018-12-12T07:24:07.705Z,10.38
2018-12-12T07:26:35.983Z,10.78
2018-12-12T07:29:04.265Z,11.12
2018-12-12T07:31:32.497Z,10.50
2018-12-12T07:34:01.393Z,10.25
2018-12-12T07:36:29.843Z,8.53
2018-12-12T07:38:58.135Z,13.58
2018-12-12T07:41:26.631Z,8.05
2018-12-12T07:43:54.952Z,13.30
2018-12-12T07:46:23.355Z,13.98
2018-12-12T07:48:51.569Z,8.95
2018-12-12T07:51:19.753Z,13.03
2018-12-12T07:53:48.444Z,13.95
2018-12-12T07:56:17.637Z,12.30
2018-12-12T07:58:45.938Z,11.60
2018-12-12T08:01:14.314Z,10.75
2018-12-12T08:03:42.474Z,11.93
2018-12-12T08:06:10.709Z,9.60
2018-12-12T08:08:38.903Z,10.20
2018-12-12T08:11:07.191Z,12.80
2018-12-12T08:13:35.356Z,12.07
2018-12-12T08:16:04.089Z,9.20
2018-12-12T08:18:32.337Z,14.23
2018-12-12T08:21:00.737Z,9.40
2018-12-12T08:23:29.651Z,10.75
2018-12-12T08:25:58.003Z,11.68
2018-12-12T08:28:26.244Z,7.17
2018-12-12T08:30:59.102Z,17.20
2018-12-12T08:33:27.367Z,13.53
2018-12-12T08:35:55.583Z,15.75
2018-12-12T08:38:23.884Z,14.00
2018-12-12T08:40:52.308Z,10.67
2018-12-12T08:43:20.475Z,8.00
2018-12-12T08:45:48.745Z,13.05
2018-12-12T08:48:17.006Z,10.85
2018-12-12T08:50:45.272Z,9.40
2018-12-12T08:53:13.414Z,12.45
2018-12-12T08:55:41.720Z,10.08
2018-12-12T08:58:09.958Z,12.90
2018-12-12T09:00:38.308Z,12.10
2018-12-12T09:03:07.179Z,11.00
2018-12-12T09:05:35.593Z,10.30
2018-12-12T09:08:03.791Z,10.23
2018-12-12T09:10:31.995Z,9.78
2018-12-12T09:13:00.284Z,7.97
2018-12-12T09:15:28.543Z,11.60
2018-12-12T09:17:56.722Z,11.33
2018-12-12T09:20:24.998Z,11.53
2018-12-12T09:22:53.195Z,9.77
2018-12-12T09:25:21.390Z,12.93
2018-12-12T09:27:49.616Z,13.17
2018-12-12T09:30:17.973Z,10.87
2018-12-12T09:32:46.238Z,23.80
2018-12-12T09:35:14.420Z,10.97
2018-12-12T09:37:43.188Z,12.20
2018-12-12T09:40:11.601Z,18.43
2018-12-12T09:42:39.908Z,11.57
2018-12-12T09:45:08.171Z,10.80
2018-12-12T09:47:36.595Z,8.77
2018-12-12T09:50:05.694Z,8.73
2018-12-12T09:55:13.436Z,13.53
2018-12-12T09:57:41.578Z,8.80
2018-12-12T10:00:09.885Z,7.30
2018-12-12T10:02:38.058Z,8.77
2018-12-12T10:05:06.470Z,6.63
2018-12-12T10:07:34.796Z,9.67
2018-12-12T10:10:03.068Z,13.40
2018-12-12T10:12:31.248Z,9.03
2018-12-12T10:14:59.488Z,5.43
2018-12-12T10:17:27.730Z,8.37
2018-12-12T10:19:56.001Z,21.13
2018-12-12T10:22:24.369Z,6.87
2018-12-12T10:24:52.578Z,7.97
2018-12-12T10:27:20.932Z,7.23
2018-12-12T10:29:49.097Z,7.60
2018-12-12T10:32:17.271Z,6.43
2018-12-12T10:34:45.418Z,9.00
2018-12-12T10:37:13.617Z,9.40
2018-12-12T10:39:41.921Z,4.53
2018-12-12T10:42:10.129Z,4.40
2018-12-12T10:44:38.341Z,6.47
2018-12-12T10:47:06.512Z,10.80
2018-12-12T10:49:34.653Z,2.83
2018-12-12T10:52:03.387Z,4.67
2018-12-12T10:54:31.632Z,3.13
2018-12-12T10:56:59.777Z,4.03
2018-12-12T10:59:27.915Z,6.90
2018-12-12T11:02:01.403Z,11.30
2018-12-12T11:04:29.806Z,7.43
2018-12-12T11:06:58.243Z,5.90
2018-12-12T11:09:26.529Z,7.20
2018-12-12T11:11:54.769Z,4.70
2018-12-12T11:14:22.980Z,9.27
2018-12-12T11:16:55.542Z,12.13
2018-12-12T11:19:23.926Z,13.67
2018-12-12T11:21:52.168Z,8.57
2018-12-12T11:24:23.379Z,7.53
2018-12-12T11:26:51.902Z,10.40
2018-12-12T11:29:20.171Z,11.13
2018-12-12T11:31:48.668Z,10.53
2018-12-12T11:34:17.145Z,10.30
2018-12-12T11:36:45.612Z,11.50
2018-12-12T11:39:14.267Z,9.10
2018-12-12T11:41:42.585Z,10.07
2018-12-12T11:44:11.875Z,9.40
2018-12-12T11:46:40.385Z,12.90
2018-12-12T11:49:08.833Z,9.37
2018-12-12T11:51:37.330Z,11.13
2018-12-12T11:54:05.595Z,13.23
2018-12-12T11:56:33.923Z,12.80
2018-12-12T11:59:02.239Z,21.63
2018-12-12T12:01:30.489Z,15.63
2018-12-12T12:03:58.787Z,17.67
2018-12-12T12:06:27.043Z,11.77
2018-12-12T12:08:57.560Z,11.40
2018-12-12T12:11:26.041Z,10.07
2018-12-12T12:13:54.379Z,15.60
2018-12-12T12:16:23.127Z,12.10
2018-12-12T12:18:51.895Z,13.43
2018-12-12T12:21:20.209Z,12.53
2018-12-12T12:23:48.832Z,13.50
2018-12-12T12:26:18.691Z,13.53
2018-12-12T12:28:47.159Z,19.50
2018-12-12T12:31:15.439Z,11.77
2018-12-12T12:33:43.829Z,19.53
2018-12-12T12:36:11.967Z,13.20
2018-12-12T12:38:41.706Z,17.37
2018-12-12T12:41:11.213Z,10.77
2018-12-12T12:43:39.503Z,15.73
2018-12-12T12:46:07.677Z,10.30
2018-12-12T12:48:35.857Z,10.67
2018-12-12T12:51:04.170Z,13.93
2018-12-12T12:53:32.409Z,15.07
2018-12-12T12:56:01.019Z,13.80
2018-12-12T12:58:29.458Z,18.47
2018-12-12T13:00:57.690Z,12.03
2018-12-12T13:03:26.202Z,10.30
2018-12-12T13:05:54.485Z,12.23
2018-12-12T13:08:22.752Z,10.77
2018-12-12T13:10:51.032Z,12.27
2018-12-12T13:13:19.817Z,8.97
2018-12-12T13:15:48.217Z,15.43
2018-12-12T13:18:16.660Z,11.87
2018-12-12T13:20:44.906Z,12.80
2018-12-12T13:23:13.274Z,13.67
2018-12-12T13:25:41.587Z,12.23
2018-12-12T13:28:09.765Z,14.17
2018-12-12T13:30:38.267Z,12.93
2018-12-12T13:33:06.645Z,11.50
2018-12-12T13:35:34.940Z,9.93
2018-12-12T13:38:03.164Z,7.97
2018-12-12T13:40:31.303Z,17.83
2018-12-12T13:42:59.805Z,15.13
2018-12-12T13:45:27.951Z,13.20
2018-12-12T13:47:56.193Z,16.00
2018-12-12T13:50:24.427Z,19.00
2018-12-12T13:52:52.785Z,18.10
2018-12-12T13:55:21.011Z,18.57
2018-12-12T13:57:49.271Z,16.17
2018-12-12T14:00:17.512Z,14.40
2018-12-12T14:02:45.807Z,16.67
2018-12-12T14:05:14.044Z,15.20
2018-12-12T14:07:42.295Z,12.97
2018-12-12T14:10:10.507Z,12.57
2018-12-12T14:12:38.822Z,31.13
2018-12-12T14:15:07.070Z,14.17
2018-12-12T14:17:35.580Z,14.00
2018-12-12T14:20:04.143Z,8.33
2018-12-12T14:22:32.338Z,14.23
2018-12-12T14:25:00.543Z,12.90
2018-12-12T14:27:28.736Z,15.00
2018-12-12T14:29:57.042Z,11.50
2018-12-12T14:32:25.317Z,11.23
2018-12-12T14:34:53.551Z,16.17
2018-12-12T14:37:21.791Z,11.65
2018-12-12T14:39:51.284Z,13.90
2018-12-12T14:42:19.619Z,18.12
2018-12-12T14:44:47.771Z,14.05
2018-12-12T14:47:16.115Z,16.77
2018-12-12T14:49:44.316Z,16.43
2018-12-12T14:52:12.522Z,19.45
2018-12-12T14:54:40.665Z,23.77
2018-12-12T14:57:08.993Z,16.77
2018-12-12T14:59:37.144Z,15.28
2018-12-12T15:02:05.413Z,17.90
2018-12-12T15:04:36.050Z,12.15
2018-12-12T15:07:04.102Z,17.82
2018-12-12T15:09:32.405Z,29.77
2018-12-12T15:12:00.735Z,23.65
2018-12-12T15:14:28.920Z,13.28
2018-12-12T15:16:57.120Z,22.25
2018-12-12T15:19:25.403Z,20.00
2018-12-12T15:21:53.682Z,17.87
2018-12-12T15:24:21.808Z,15.13
2018-12-12T15:26:49.956Z,23.65
2018-12-12T15:29:18.101Z,11.80
2018-12-12T15:31:46.232Z,18.48
2018-12-12T15:34:14.583Z,24.90
2018-12-12T15:36:43.029Z,15.90
2018-12-12T15:39:11.245Z,18.42
2018-12-12T15:41:39.413Z,15.30
2018-12-12T15:44:07.550Z,20.02
2018-12-12T15:46:35.674Z,17.82
2018-12-12T15:49:03.920Z,14.70
2018-12-12T15:51:32.118Z,14.43
2018-12-12T15:54:00.324Z,18.55
2018-12-12T15:56:28.672Z,23.10
2018-12-12T15:58:56.865Z,20.95
2018-12-12T16:01:25.087Z,18.45
2018-12-12T16:03:53.288Z,19.82
2018-12-12T16:06:21.494Z,18.20
2018-12-12T16:08:49.990Z,13.48
2018-12-12T16:11:18.266Z,15.45
2018-12-12T16:13:46.498Z,16.52
2018-12-12T16:16:14.806Z,12.00
2018-12-12T16:18:42.956Z,18.10
2018-12-12T16:21:11.151Z,15.70
2018-12-12T16:23:39.340Z,15.90
2018-12-12T16:26:07.509Z,10.90
2018-12-12T16:28:35.745Z,17.52
2018-12-12T16:31:04.248Z,16.82
2018-12-12T16:33:32.481Z,17.30
2018-12-12T16:36:00.781Z,38.53
2018-12-12T16:38:28.951Z,21.27
2018-12-12T16:40:57.127Z,20.17
2018-12-12T16:43:25.470Z,22.02
2018-12-12T16:45:53.713Z,17.30
2018-12-12T16:48:22.679Z,17.37
2018-12-12T16:50:50.917Z,15.50
2018-12-12T16:53:19.252Z,15.85
2018-12-12T16:55:47.475Z,15.13
2018-12-12T16:58:15.665Z,15.95
2018-12-12T17:00:43.887Z,24.57
2018-12-12T17:03:12.181Z,16.17
2018-12-12T17:05:40.414Z,22.50
2018-12-12T17:08:08.788Z,20.82
2018-12-12T17:10:36.962Z,17.37
2018-12-12T17:13:05.205Z,18.65
2018-12-12T17:15:33.404Z,17.37
2018-12-12T17:18:01.614Z,16.73
2018-12-12T17:20:29.835Z,17.23
2018-12-12T17:22:58.100Z,21.17
2018-12-12T17:25:27.331Z,24.30
2018-12-12T17:27:55.771Z,16.00
2018-12-12T17:30:23.993Z,16.97
2018-12-12T17:32:53.062Z,31.23
2018-12-12T17:35:21.525Z,16.73
2018-12-12T17:37:49.778Z,13.93
2018-12-12T17:40:17.950Z,16.73
2018-12-12T17:42:46.272Z,14.05
2018-12-12T17:45:14.625Z,16.05
2018-12-12T17:47:42.817Z,16.32
2018-12-12T17:50:11.107Z,12.33
2018-12-12T17:52:39.273Z,14.90
2018-12-12T17:55:07.555Z,19.52
2018-12-12T17:57:35.767Z,13.30
2018-12-12T18:00:04.522Z,15.15
2018-12-12T18:02:32.686Z,9.98
2018-12-12T18:05:01.760Z,16.30
2018-12-12T18:07:30.356Z,12.15
2018-12-12T18:09:58.553Z,14.43
2018-12-12T18:12:26.778Z,16.48
2018-12-12T18:14:55.074Z,14.65
2018-12-12T18:17:23.349Z,12.60
2018-12-12T18:19:51.624Z,19.92
2018-12-12T18:22:19.784Z,17.67
2018-12-12T18:24:48.055Z,16.15
2018-12-12T18:27:16.358Z,16.45
2018-12-12T18:29:46.109Z,19.52
2018-12-12T18:32:14.632Z,21.65
2018-12-12T18:34:42.879Z,11.10
2018-12-12T18:37:11.903Z,14.07
2018-12-12T18:39:40.118Z,15.28
2018-12-12T18:42:08.416Z,16.55
2018-12-12T18:44:36.676Z,15.68
2018-12-12T18:47:04.891Z,20.88
2018-12-12T18:49:33.876Z,15.68
2018-12-12T18:52:02.485Z,19.45
2018-12-12T18:54:30.666Z,22.42
2018-12-12T18:56:58.906Z,14.65
2018-12-12T18:59:27.102Z,17.62
2018-12-12T19:01:55.373Z,12.95
2018-12-12T19:04:23.565Z,18.50
2018-12-12T19:06:52.057Z,16.75
2018-12-12T19:09:20.207Z,13.43
2018-12-12T19:11:48.476Z,19.75
2018-12-12T19:14:16.726Z,17.12
2018-12-12T19:16:45.283Z,18.62
2018-12-12T19:19:13.536Z,14.87
2018-12-12T19:21:41.727Z,17.00
2018-12-12T19:24:09.871Z,18.42
2018-12-12T19:26:38.206Z,13.18
2018-12-12T19:29:06.618Z,19.77
2018-12-12T19:31:35.072Z,15.83
2018-12-12T19:34:03.350Z,14.13
2018-12-12T19:36:31.663Z,14.58
2018-12-12T19:38:59.900Z,15.55
2018-12-12T19:41:28.202Z,21.15
2018-12-12T19:43:56.386Z,14.58
2018-12-12T19:46:24.679Z,14.28
2018-12-12T19:48:53.366Z,20.75
2018-12-12T19:51:21.687Z,18.90
2018-12-12T19:53:50.039Z,39.65
2018-12-12T19:56:18.410Z,35.20
2018-12-12T19:58:47.461Z,28.02
2018-12-12T20:01:15.753Z,26.70
2018-12-12T20:03:47.108Z,22.25
2018-12-12T20:06:15.719Z,17.60
2018-12-12T20:08:44.603Z,20.35
2018-12-12T20:11:12.863Z,14.05
2018-12-12T20:13:41.081Z,17.62
2018-12-12T20:16:09.235Z,16.00
2018-12-12T20:18:37.823Z,24.57
2018-12-12T20:21:06.379Z,18.17
2018-12-12T20:23:35.247Z,18.52
2018-12-12T20:26:04.938Z,25.05
2018-12-12T20:28:33.348Z,16.97
2018-12-12T20:31:02.217Z,19.85
2018-12-12T20:33:30.680Z,20.60
2018-12-12T20:35:59.137Z,21.10
2018-12-12T20:38:28.814Z,21.87
2018-12-12T20:40:57.788Z,16.82
2018-12-12T20:43:26.518Z,19.80
2018-12-12T20:45:55.416Z,21.60
2018-12-12T20:48:24.044Z,19.48
2018-12-12T20:50:53.000Z,17.23
2018-12-12T20:53:22.772Z,22.93
2018-12-12T20:55:51.212Z,19.05
2018-12-12T20:58:19.466Z,19.82
2018-12-12T21:00:50.457Z,21.45
2018-12-12T21:03:18.944Z,33.80
2018-12-12T21:05:47.456Z,22.05
2018-12-12T21:08:16.203Z,17.90
2018-12-12T21:10:45.194Z,14.35
2018-12-12T21:13:13.562Z,23.22
2018-12-12T21:15:46.334Z,29.92
2018-12-12T21:18:14.894Z,20.27
2018-12-12T21:20:43.995Z,24.52
2018-12-12T21:23:12.502Z,22.80
2018-12-12T21:25:41.625Z,21.60
2018-12-12T21:28:10.322Z,18.32
2018-12-12T21:30:39.274Z,24.60
2018-12-12T21:33:08.723Z,25.65
2018-12-12T21:35:37.026Z,24.45
2018-12-12T21:38:05.530Z,31.12
2018-12-12T21:40:35.007Z,23.67
2018-12-12T21:43:04.206Z,35.28
2018-12-12T21:45:33.349Z,23.52
2018-12-12T21:48:02.525Z,23.47
2018-12-12T21:50:31.335Z,45.58
2018-12-12T21:53:00.826Z,28.52
2018-12-12T21:55:30.391Z,28.60
2018-12-12T21:57:59.568Z,24.77
2018-12-12T22:00:28.205Z,31.05
2018-12-12T22:02:56.591Z,25.27
2018-12-12T22:05:25.110Z,26.10
2018-12-12T22:07:53.646Z,25.30
2018-12-12T22:10:23.322Z,27.20
2018-12-12T22:12:52.891Z,26.77
2018-12-12T22:15:22.450Z,22.40
2018-12-12T22:17:51.073Z,39.53
2018-12-12T22:20:19.595Z,25.15
2018-12-12T22:22:48.120Z,18.10
2018-12-12T22:25:17.539Z,31.10
2018-12-12T22:27:45.782Z,27.17
2018-12-12T22:30:14.017Z,22.37
2018-12-12T22:32:43.158Z,19.70
2018-12-12T22:35:11.668Z,22.85
2018-12-12T22:37:40.002Z,25.72
2018-12-12T22:40:08.287Z,20.50
2018-12-12T22:42:36.665Z,21.50
2018-12-12T22:45:05.498Z,17.17
2018-12-12T22:47:34.062Z,35.25
2018-12-12T22:50:02.420Z,26.15
2018-12-12T22:52:30.618Z,17.75
2018-12-12T22:54:58.850Z,21.90
2018-12-12T22:57:27.306Z,20.25
2018-12-12T22:59:55.544Z,22.98
2018-12-12T23:02:24.167Z,14.55
2018-12-12T23:04:52.542Z,17.60
2018-12-12T23:07:20.814Z,13.93
2018-12-12T23:09:49.065Z,17.80
2018-12-12T23:12:17.325Z,15.35
2018-12-12T23:14:46.949Z,13.70
2018-12-12T23:17:18.072Z,16.95
2018-12-12T23:19:48.446Z,15.85
2018-12-12T23:22:17.939Z,22.75
2018-12-12T23:24:47.370Z,18.07
2018-12-12T23:27:15.625Z,19.82
2018-12-12T23:29:43.978Z,18.73
2018-12-12T23:32:12.239Z,12.73
2018-12-12T23:34:46.888Z,18.60
2018-12-12T23:37:20.603Z,13.05
2018-12-12T23:42:26.876Z,17.45
2018-12-12T23:44:58.910Z,18.45
2018-12-12T23:47:27.325Z,18.40
2018-12-12T23:49:55.679Z,22.90
2018-12-12T23:52:23.938Z,17.42
2018-12-12T23:54:52.113Z,20.23
2018-12-12T23:57:20.325Z,16.45
2018-12-12T23:59:48.505Z,20.80
